Seaconger — DEJY — position and weather

sailwx.info

Track history (hours):
 
Tides and Currents Weather Stations Pressure Air Temp Water Temp Dewpoint Dewpoint Depression Visibility Wind Speed Wind Dir Waves Ship Positions

Seaconger

Last reported at 2018-Jul-20 03:23 UTC. Time now 2018-Jul-20 04:28 UTC.
Position N 51°17' E 004°20'.

Length 177 m; draft 7 m.

Type: Ship. MMSI: 211822000.

Date/timePositionNaut miles runAvg speedWind from/ knotsBaromVisibWave heightAir tempDewpointWater temp
2018-Jul-20 03:23N 51°17' E 004°20'0 0.0
2018-Jul-20 02:59N 51°17' E 004°20'0 0.0
2018-Jul-20 02:23N 51°17' E 004°20'0 0.0
2018-Jul-20 01:59N 51°17' E 004°20'0 0.0
2018-Jul-20 01:28N 51°17' E 004°20'0 0.0
2018-Jul-20 00:58N 51°17' E 004°20'0 0.0
2018-Jul-20 00:25N 51°17' E 004°20'0 0.0
2018-Jul-19 23:43N 51°17' E 004°20'0 0.0
2018-Jul-19 23:30N 51°17' E 004°20'0 0.0
2018-Jul-19 22:57N 51°17' E 004°20'0 0.0
2018-Jul-19 22:27N 51°17' E 004°20'0 0.0
2018-Jul-19 21:57N 51°17' E 004°20'0 0.0
2018-Jul-19 21:27N 51°17' E 004°20'0 0.0
2018-Jul-19 20:53N 51°17' E 004°20'0 0.0
2018-Jul-19 20:26N 51°17' E 004°20'0 0.0
2018-Jul-19 19:59N 51°17' E 004°20'0 0.0
2018-Jul-19 19:26N 51°17' E 004°20'0 0.0
2018-Jul-19 18:58N 51°17' E 004°20'0 0.0
2018-Jul-19 18:28N 51°17' E 004°20'0 0.0
2018-Jul-19 17:58N 51°17' E 004°20'0 0.0
2018-Jul-19 17:28N 51°17' E 004°20'0 0.0
2018-Jul-19 16:58N 51°17' E 004°20'0 0.0
2018-Jul-19 16:30N 51°17' E 004°20'0 0.0
2018-Jul-19 15:54N 51°17' E 004°20'0 0.0
2018-Jul-19 15:27N 51°17' E 004°20'0 0.0
2018-Jul-19 14:51N 51°17' E 004°20'0 0.0
2018-Jul-19 14:21N 51°17' E 004°20'0 0.0
2018-Jul-19 13:26N 51°17' E 004°20'0 0.0
2018-Jul-19 11:43N 51°17' E 004°20'0 0.0
2018-Jul-19 10:55N 51°17' E 004°20'0 0.0
2018-Jul-19 10:25N 51°17' E 004°20'0 0.0
2018-Jul-19 09:21N 51°17' E 004°20'0 0.0
2018-Jul-19 08:54N 51°17' E 004°20'0 0.0
2018-Jul-19 08:24N 51°17' E 004°20'0 0.0
2018-Jul-19 07:57N 51°17' E 004°20'0 0.0
2018-Jul-19 07:17N 51°17' E 004°20'0 0.0
2018-Jul-19 06:53N 51°17' E 004°20'0 0.0
2018-Jul-19 06:26N 51°17' E 004°20'0 0.0
2018-Jul-19 05:56N 51°17' E 004°20'0 0.0
2018-Jul-19 05:17N 51°17' E 004°20'0 0.0
2018-Jul-19 04:46N 51°17' E 004°20'0 0.0
2018-Jul-19 04:22N 51°17' E 004°20'0 0.0
2018-Jul-19 03:52N 51°17' E 004°20'0 0.0
2018-Jul-19 03:22N 51°17' E 004°20'0 0.0
2018-Jul-19 02:52N 51°17' E 004°20'0 0.0
2018-Jul-19 02:24N 51°17' E 004°20'0 0.0
2018-Jul-19 01:55N 51°17' E 004°20'0 0.0
2018-Jul-19 01:24N 51°17' E 004°20'0 0.0
2018-Jul-19 00:54N 51°17' E 004°20'0 0.0
2018-Jul-19 00:30N 51°17' E 004°20'0 0.0
2018-Jul-18 23:59N 51°17' E 004°20'0 0.0
2018-Jul-18 23:26N 51°17' E 004°20'0 0.0
2018-Jul-18 22:07N 51°17' E 004°20'0 0.0
2018-Jul-18 21:52N 51°17' E 004°20'0 0.0
2018-Jul-18 21:29N 51°17' E 004°20'0 0.1
2018-Jul-18 21:00N 51°17' E 004°20'3 5.2
2018-Jul-18 20:30N 51°20' E 004°18'1 2.7
2018-Jul-18 20:01N 51°21' E 004°17'0 0.0
2018-Jul-18 19:31N 51°21' E 004°17'0 0.7
2018-Jul-18 19:00N 51°21' E 004°16'3 5.9
2018-Jul-18 18:31N 51°23' E 004°13'611.1
2018-Jul-18 18:00N 51°22' E 004°04'5 9.4
2018-Jul-18 17:30N 51°25' E 003°58'714.1
2018-Jul-18 17:00N 51°21' E 003°49'612.5
2018-Jul-18 16:30N 51°25' E 003°42'611.2
2018-Jul-18 16:00N 51°25' E 003°33'714.9
2018-Jul-18 15:30N 51°24' E 003°21'714.4
2018-Jul-18 15:00N 51°24' E 003°10'612.4
2018-Jul-18 14:30N 51°25' E 002°60'1513.7
2018-Jul-18 13:26N 51°38' E 003°11'614.2
2018-Jul-18 13:00N 51°44' E 003°13'4 7.6
2018-Jul-18 12:30N 51°48' E 003°15'3 6.9
2018-Jul-18 12:00N 51°50' E 003°20'1 0.7
2018-Jul-18 10:22N 51°50' E 003°22'0 0.4
2018-Jul-18 09:58N 51°50' E 003°22'0 0.1
2018-Jul-18 09:31N 51°50' E 003°22'0 0.0
2018-Jul-18 08:48N 51°50' E 003°22'0 0.0
2018-Jul-17 22:38N 51°49' E 003°22'0 0.6
2018-Jul-17 22:26N 51°50' E 003°22'0 0.3
2018-Jul-17 21:46N 51°50' E 003°22'0 0.0
2018-Jul-17 21:28N 51°50' E 003°22'0 0.0
2018-Jul-17 20:58N 51°50' E 003°22'0 0.0
2018-Jul-17 18:45N 51°50' E 003°22'0 0.0
2018-Jul-17 18:30N 51°50' E 003°22'0 0.0
2018-Jul-17 18:00N 51°50' E 003°22'0 0.0
2018-Jul-17 17:29N 51°50' E 003°22'0 0.0
2018-Jul-17 15:22N 51°50' E 003°22'0 0.0
2018-Jul-17 02:02N 51°49' E 003°22'0 0.2
2018-Jul-17 01:56N 51°49' E 003°22'0 0.1
2018-Jul-17 00:55N 51°49' E 003°22'0 0.0
2018-Jul-16 23:27N 51°49' E 003°22'0 0.0
2018-Jul-16 23:00N 51°49' E 003°22'0 0.0
2018-Jul-16 22:24N 51°49' E 003°22'0 0.0
2018-Jul-16 21:54N 51°49' E 003°22'0 0.1
2018-Jul-16 21:18N 51°50' E 003°22'0 0.2
2018-Jul-16 20:59N 51°50' E 003°22'0 0.1
2018-Jul-16 20:29N 51°50' E 003°22'0 0.0
2018-Jul-16 19:59N 51°50' E 003°22'0 0.0
2018-Jul-16 19:26N 51°50' E 003°22'0 0.0
2018-Jul-16 18:59N 51°50' E 003°22'0 0.0
2018-Jul-16 18:22N 51°50' E 003°22'0 0.0
2018-Jul-16 17:52N 51°50' E 003°22'0 0.0
2018-Jul-16 17:13N 51°50' E 003°22'0 0.0
2018-Jul-16 16:46N 51°50' E 003°22'0 0.0
2018-Jul-16 15:30N 51°50' E 003°22'0 0.2
2018-Jul-16 14:54N 51°50' E 003°22'1 2.4
2018-Jul-16 14:30N 51°50' E 003°21'510.4
2018-Jul-16 14:00N 51°47' E 003°14'611.5
2018-Jul-16 13:31N 51°51' E 003°07'712.3
2018-Jul-16 12:57N 51°58' E 003°04'612.4
2018-Jul-16 12:30N 52°03' E 003°01'712.1
2018-Jul-16 11:57N 52°09' E 002°59'2912.8
2018-Jul-16 09:42N 52°38' E 003°09'313.1
2018-Jul-16 09:30N 52°40' E 003°10'812.9
2018-Jul-16 08:54N 52°48' E 003°13'2812.5
2018-Jul-16 06:40N 53°15' E 003°26'212.1
2018-Jul-16 06:30N 53°16' E 003°27'1111.9
2018-Jul-16 05:33N 53°27' E 003°33'43912.0
2018-Jul-14 16:57N 60°46' E 004°18'613.0
2018-Jul-14 16:30N 60°49' E 004°28'611.8
2018-Jul-14 16:00N 60°52' E 004°39'510.0
2018-Jul-14 15:30N 60°51' E 004°49'510.5
2018-Jul-14 15:00N 60°50' E 004°60'2 3.4
2018-Jul-14 14:28N 60°49' E 005°03'0 0.0
2018-Jul-14 13:30N 60°49' E 005°03'0 0.0
2018-Jul-14 13:00N 60°49' E 005°03'0 0.0
2018-Jul-14 12:30N 60°49' E 005°03'0 0.0
2018-Jul-14 12:00N 60°49' E 005°03'0 0.0
2018-Jul-14 11:30N 60°49' E 005°03'0 0.0
2018-Jul-14 10:59N 60°49' E 005°03'0 0.0
2018-Jul-14 10:29N 60°49' E 005°03'0 0.0
2018-Jul-14 09:59N 60°49' E 005°03'0 0.0
2018-Jul-14 09:29N 60°49' E 005°03'0 0.0
2018-Jul-14 08:55N 60°49' E 005°03'0 0.0
2018-Jul-14 08:28N 60°49' E 005°03'0 0.0
2018-Jul-14 07:58N 60°49' E 005°03'0 0.0
2018-Jul-14 07:28N 60°49' E 005°03'0 0.0
2018-Jul-14 06:58N 60°49' E 005°03'0 0.0
2018-Jul-14 06:30N 60°49' E 005°03'0 0.0
2018-Jul-14 06:00N 60°49' E 005°03'0 0.0
2018-Jul-14 05:30N 60°49' E 005°03'0 0.0
2018-Jul-14 05:00N 60°49' E 005°03'0 0.0
2018-Jul-14 04:30N 60°49' E 005°03'0 0.0
2018-Jul-14 03:59N 60°49' E 005°03'0 0.0
2018-Jul-14 03:29N 60°49' E 005°03'0 0.0
2018-Jul-14 02:59N 60°49' E 005°03'0 0.0
2018-Jul-14 02:29N 60°49' E 005°03'0 0.0
2018-Jul-14 01:52N 60°49' E 005°03'0 0.0
2018-Jul-14 01:28N 60°49' E 005°03'0 0.0
2018-Jul-14 00:58N 60°49' E 005°03'0 0.0
2018-Jul-14 00:28N 60°49' E 005°03'0 0.0
2018-Jul-13 23:58N 60°49' E 005°03'0 0.0
2018-Jul-13 23:30N 60°49' E 005°03'0 0.0
2018-Jul-13 23:00N 60°49' E 005°03'0 0.0
2018-Jul-13 22:30N 60°49' E 005°03'0 0.0
2018-Jul-13 22:00N 60°49' E 005°03'0 0.0
2018-Jul-13 21:29N 60°49' E 005°03'0 0.0
2018-Jul-13 20:59N 60°49' E 005°03'0 0.0
2018-Jul-13 20:29N 60°49' E 005°03'0 0.0
2018-Jul-13 19:59N 60°49' E 005°03'0 0.0
2018-Jul-13 19:29N 60°49' E 005°03'0 0.0
2018-Jul-13 18:58N 60°49' E 005°03'0 0.0
2018-Jul-13 18:28N 60°49' E 005°03'0 0.0
2018-Jul-13 17:58N 60°49' E 005°03'0 0.0
2018-Jul-13 17:28N 60°49' E 005°03'0 0.0
2018-Jul-13 17:01N 60°49' E 005°03'0 0.0
2018-Jul-13 16:30N 60°49' E 005°03'0 0.0
2018-Jul-13 16:00N 60°49' E 005°03'0 0.0
2018-Jul-13 15:30N 60°49' E 005°03'0 0.0
2018-Jul-13 15:00N 60°49' E 005°03'0 0.0
2018-Jul-13 13:59N 60°49' E 005°03'0 0.0
2018-Jul-13 13:29N 60°49' E 005°03'0 0.0
2018-Jul-13 12:59N 60°49' E 005°03'0 0.0
2018-Jul-13 12:26N 60°49' E 005°03'0 0.0
2018-Jul-13 11:58N 60°49' E 005°03'0 0.0
2018-Jul-13 11:28N 60°49' E 005°03'0 0.0
2018-Jul-13 10:55N 60°49' E 005°03'0 0.0
2018-Jul-13 10:28N 60°49' E 005°03'0 0.0
2018-Jul-13 09:57N 60°49' E 005°03'0 0.0
2018-Jul-13 09:30N 60°49' E 005°03'0 0.0
2018-Jul-13 09:00N 60°49' E 005°03'0 0.0
2018-Jul-13 08:30N 60°49' E 005°03'0 0.0
2018-Jul-13 08:00N 60°49' E 005°03'0 0.0
2018-Jul-13 07:29N 60°49' E 005°03'0 0.0
2018-Jul-13 06:59N 60°49' E 005°03'0 0.0
2018-Jul-13 06:29N 60°49' E 005°03'0 0.0
2018-Jul-13 05:59N 60°49' E 005°03'0 0.0
2018-Jul-13 05:28N 60°49' E 005°03'0 0.0
2018-Jul-13 04:58N 60°49' E 005°03'0 0.0
2018-Jul-13 04:28N 60°49' E 005°03'0 0.0
2018-Jul-13 03:58N 60°49' E 005°03'0 0.0
2018-Jul-13 03:30N 60°49' E 005°03'0 0.4
2018-Jul-13 03:00N 60°49' E 005°03'3 4.9
2018-Jul-13 02:28N 60°50' E 004°58'510.6
2018-Jul-13 01:59N 60°51' E 004°48'4 7.8
2018-Jul-13 01:29N 60°47' E 004°46'3 6.8
2018-Jul-13 00:59N 60°45' E 004°41'611.4
2018-Jul-13 00:30N 60°43' E 004°30'612.7
2018-Jul-13 00:00N 60°38' E 004°22'  
Track history (hours):
 
Tides and Currents Weather Stations Pressure Air Temp Water Temp Dewpoint Dewpoint Depression Visibility Wind Speed Wind Dir Waves Ship Positions

Seaconger

Last reported at 2018-Jul-20 03:23 UTC. Time now 2018-Jul-20 04:28 UTC.
Position N 51°17' E 004°20'.

Length 177 m; draft 7 m.

Type: Ship. MMSI: 211822000.

Date/timePositionNaut miles runAvg speedWind from/ knotsBaromVisibWave heightAir tempDewpointWater temp
2018-Jul-20 03:23N 51°17' E 004°20'0 0.0
2018-Jul-20 02:59N 51°17' E 004°20'0 0.0
2018-Jul-20 02:23N 51°17' E 004°20'0 0.0
2018-Jul-20 01:59N 51°17' E 004°20'0 0.0
2018-Jul-20 01:28N 51°17' E 004°20'0 0.0
2018-Jul-20 00:58N 51°17' E 004°20'0 0.0
2018-Jul-20 00:25N 51°17' E 004°20'0 0.0
2018-Jul-19 23:43N 51°17' E 004°20'0 0.0
2018-Jul-19 23:30N 51°17' E 004°20'0 0.0
2018-Jul-19 22:57N 51°17' E 004°20'0 0.0
2018-Jul-19 22:27N 51°17' E 004°20'0 0.0
2018-Jul-19 21:57N 51°17' E 004°20'0 0.0
2018-Jul-19 21:27N 51°17' E 004°20'0 0.0
2018-Jul-19 20:53N 51°17' E 004°20'0 0.0
2018-Jul-19 20:26N 51°17' E 004°20'0 0.0
2018-Jul-19 19:59N 51°17' E 004°20'0 0.0
2018-Jul-19 19:26N 51°17' E 004°20'0 0.0
2018-Jul-19 18:58N 51°17' E 004°20'0 0.0
2018-Jul-19 18:28N 51°17' E 004°20'0 0.0
2018-Jul-19 17:58N 51°17' E 004°20'0 0.0
2018-Jul-19 17:28N 51°17' E 004°20'0 0.0
2018-Jul-19 16:58N 51°17' E 004°20'0 0.0
2018-Jul-19 16:30N 51°17' E 004°20'0 0.0
2018-Jul-19 15:54N 51°17' E 004°20'0 0.0
2018-Jul-19 15:27N 51°17' E 004°20'0 0.0
2018-Jul-19 14:51N 51°17' E 004°20'0 0.0
2018-Jul-19 14:21N 51°17' E 004°20'0 0.0
2018-Jul-19 13:26N 51°17' E 004°20'0 0.0
2018-Jul-19 11:43N 51°17' E 004°20'0 0.0
2018-Jul-19 10:55N 51°17' E 004°20'0 0.0
2018-Jul-19 10:25N 51°17' E 004°20'0 0.0
2018-Jul-19 09:21N 51°17' E 004°20'0 0.0
2018-Jul-19 08:54N 51°17' E 004°20'0 0.0
2018-Jul-19 08:24N 51°17' E 004°20'0 0.0
2018-Jul-19 07:57N 51°17' E 004°20'0 0.0
2018-Jul-19 07:17N 51°17' E 004°20'0 0.0
2018-Jul-19 06:53N 51°17' E 004°20'0 0.0
2018-Jul-19 06:26N 51°17' E 004°20'0 0.0
2018-Jul-19 05:56N 51°17' E 004°20'0 0.0
2018-Jul-19 05:17N 51°17' E 004°20'0 0.0
2018-Jul-19 04:46N 51°17' E 004°20'0 0.0
2018-Jul-19 04:22N 51°17' E 004°20'0 0.0
2018-Jul-19 03:52N 51°17' E 004°20'0 0.0
2018-Jul-19 03:22N 51°17' E 004°20'0 0.0
2018-Jul-19 02:52N 51°17' E 004°20'0 0.0
2018-Jul-19 02:24N 51°17' E 004°20'0 0.0
2018-Jul-19 01:55N 51°17' E 004°20'0 0.0
2018-Jul-19 01:24N 51°17' E 004°20'0 0.0
2018-Jul-19 00:54N 51°17' E 004°20'0 0.0
2018-Jul-19 00:30N 51°17' E 004°20'0 0.0
2018-Jul-18 23:59N 51°17' E 004°20'0 0.0
2018-Jul-18 23:26N 51°17' E 004°20'0 0.0
2018-Jul-18 22:07N 51°17' E 004°20'0 0.0
2018-Jul-18 21:52N 51°17' E 004°20'0 0.0
2018-Jul-18 21:29N 51°17' E 004°20'0 0.1
2018-Jul-18 21:00N 51°17' E 004°20'3 5.2
2018-Jul-18 20:30N 51°20' E 004°18'1 2.7
2018-Jul-18 20:01N 51°21' E 004°17'0 0.0
2018-Jul-18 19:31N 51°21' E 004°17'0 0.7
2018-Jul-18 19:00N 51°21' E 004°16'3 5.9
2018-Jul-18 18:31N 51°23' E 004°13'611.1
2018-Jul-18 18:00N 51°22' E 004°04'5 9.4
2018-Jul-18 17:30N 51°25' E 003°58'714.1
2018-Jul-18 17:00N 51°21' E 003°49'612.5
2018-Jul-18 16:30N 51°25' E 003°42'611.2
2018-Jul-18 16:00N 51°25' E 003°33'714.9
2018-Jul-18 15:30N 51°24' E 003°21'714.4
2018-Jul-18 15:00N 51°24' E 003°10'612.4
2018-Jul-18 14:30N 51°25' E 002°60'1513.7
2018-Jul-18 13:26N 51°38' E 003°11'614.2
2018-Jul-18 13:00N 51°44' E 003°13'4 7.6
2018-Jul-18 12:30N 51°48' E 003°15'3 6.9
2018-Jul-18 12:00N 51°50' E 003°20'1 0.7
2018-Jul-18 10:22N 51°50' E 003°22'0 0.4
2018-Jul-18 09:58N 51°50' E 003°22'0 0.1
2018-Jul-18 09:31N 51°50' E 003°22'0 0.0
2018-Jul-18 08:48N 51°50' E 003°22'0 0.0
2018-Jul-17 22:38N 51°49' E 003°22'0 0.6
2018-Jul-17 22:26N 51°50' E 003°22'0 0.3
2018-Jul-17 21:46N 51°50' E 003°22'0 0.0
2018-Jul-17 21:28N 51°50' E 003°22'0 0.0
2018-Jul-17 20:58N 51°50' E 003°22'0 0.0
2018-Jul-17 18:45N 51°50' E 003°22'0 0.0
2018-Jul-17 18:30N 51°50' E 003°22'0 0.0
2018-Jul-17 18:00N 51°50' E 003°22'0 0.0
2018-Jul-17 17:29N 51°50' E 003°22'0 0.0
2018-Jul-17 15:22N 51°50' E 003°22'0 0.0
2018-Jul-17 02:02N 51°49' E 003°22'0 0.2
2018-Jul-17 01:56N 51°49' E 003°22'0 0.1
2018-Jul-17 00:55N 51°49' E 003°22'0 0.0
2018-Jul-16 23:27N 51°49' E 003°22'0 0.0
2018-Jul-16 23:00N 51°49' E 003°22'0 0.0
2018-Jul-16 22:24N 51°49' E 003°22'0 0.0
2018-Jul-16 21:54N 51°49' E 003°22'0 0.1
2018-Jul-16 21:18N 51°50' E 003°22'0 0.2
2018-Jul-16 20:59N 51°50' E 003°22'0 0.1
2018-Jul-16 20:29N 51°50' E 003°22'0 0.0
2018-Jul-16 19:59N 51°50' E 003°22'0 0.0
2018-Jul-16 19:26N 51°50' E 003°22'0 0.0
2018-Jul-16 18:59N 51°50' E 003°22'0 0.0
2018-Jul-16 18:22N 51°50' E 003°22'0 0.0
2018-Jul-16 17:52N 51°50' E 003°22'0 0.0
2018-Jul-16 17:13N 51°50' E 003°22'0 0.0
2018-Jul-16 16:46N 51°50' E 003°22'0 0.0
2018-Jul-16 15:30N 51°50' E 003°22'0 0.2
2018-Jul-16 14:54N 51°50' E 003°22'1 2.4
2018-Jul-16 14:30N 51°50' E 003°21'510.4
2018-Jul-16 14:00N 51°47' E 003°14'611.5
2018-Jul-16 13:31N 51°51' E 003°07'712.3
2018-Jul-16 12:57N 51°58' E 003°04'612.4
2018-Jul-16 12:30N 52°03' E 003°01'712.1
2018-Jul-16 11:57N 52°09' E 002°59'2912.8
2018-Jul-16 09:42N 52°38' E 003°09'313.1
2018-Jul-16 09:30N 52°40' E 003°10'812.9
2018-Jul-16 08:54N 52°48' E 003°13'2812.5
2018-Jul-16 06:40N 53°15' E 003°26'212.1
2018-Jul-16 06:30N 53°16' E 003°27'1111.9
2018-Jul-16 05:33N 53°27' E 003°33'43912.0
2018-Jul-14 16:57N 60°46' E 004°18'613.0
2018-Jul-14 16:30N 60°49' E 004°28'611.8
2018-Jul-14 16:00N 60°52' E 004°39'510.0
2018-Jul-14 15:30N 60°51' E 004°49'510.5
2018-Jul-14 15:00N 60°50' E 004°60'2 3.4
2018-Jul-14 14:28N 60°49' E 005°03'0 0.0
2018-Jul-14 13:30N 60°49' E 005°03'0 0.0
2018-Jul-14 13:00N 60°49' E 005°03'0 0.0
2018-Jul-14 12:30N 60°49' E 005°03'0 0.0
2018-Jul-14 12:00N 60°49' E 005°03'0 0.0
2018-Jul-14 11:30N 60°49' E 005°03'0 0.0
2018-Jul-14 10:59N 60°49' E 005°03'0 0.0
2018-Jul-14 10:29N 60°49' E 005°03'0 0.0
2018-Jul-14 09:59N 60°49' E 005°03'0 0.0
2018-Jul-14 09:29N 60°49' E 005°03'0 0.0
2018-Jul-14 08:55N 60°49' E 005°03'0 0.0
2018-Jul-14 08:28N 60°49' E 005°03'0 0.0
2018-Jul-14 07:58N 60°49' E 005°03'0 0.0
2018-Jul-14 07:28N 60°49' E 005°03'0 0.0
2018-Jul-14 06:58N 60°49' E 005°03'0 0.0
2018-Jul-14 06:30N 60°49' E 005°03'0 0.0
2018-Jul-14 06:00N 60°49' E 005°03'0 0.0
2018-Jul-14 05:30N 60°49' E 005°03'0 0.0
2018-Jul-14 05:00N 60°49' E 005°03'0 0.0
2018-Jul-14 04:30N 60°49' E 005°03'0 0.0
2018-Jul-14 03:59N 60°49' E 005°03'0 0.0
2018-Jul-14 03:29N 60°49' E 005°03'0 0.0
2018-Jul-14 02:59N 60°49' E 005°03'0 0.0
2018-Jul-14 02:29N 60°49' E 005°03'0 0.0
2018-Jul-14 01:52N 60°49' E 005°03'0 0.0
2018-Jul-14 01:28N 60°49' E 005°03'0 0.0
2018-Jul-14 00:58N 60°49' E 005°03'0 0.0
2018-Jul-14 00:28N 60°49' E 005°03'0 0.0
2018-Jul-13 23:58N 60°49' E 005°03'0 0.0
2018-Jul-13 23:30N 60°49' E 005°03'0 0.0
2018-Jul-13 23:00N 60°49' E 005°03'0 0.0
2018-Jul-13 22:30N 60°49' E 005°03'0 0.0
2018-Jul-13 22:00N 60°49' E 005°03'0 0.0
2018-Jul-13 21:29N 60°49' E 005°03'0 0.0
2018-Jul-13 20:59N 60°49' E 005°03'0 0.0
2018-Jul-13 20:29N 60°49' E 005°03'0 0.0
2018-Jul-13 19:59N 60°49' E 005°03'0 0.0
2018-Jul-13 19:29N 60°49' E 005°03'0 0.0
2018-Jul-13 18:58N 60°49' E 005°03'0 0.0
2018-Jul-13 18:28N 60°49' E 005°03'0 0.0
2018-Jul-13 17:58N 60°49' E 005°03'0 0.0
2018-Jul-13 17:28N 60°49' E 005°03'0 0.0
2018-Jul-13 17:01N 60°49' E 005°03'0 0.0
2018-Jul-13 16:30N 60°49' E 005°03'0 0.0
2018-Jul-13 16:00N 60°49' E 005°03'0 0.0
2018-Jul-13 15:30N 60°49' E 005°03'0 0.0
2018-Jul-13 15:00N 60°49' E 005°03'0 0.0
2018-Jul-13 13:59N 60°49' E 005°03'0 0.0
2018-Jul-13 13:29N 60°49' E 005°03'0 0.0
2018-Jul-13 12:59N 60°49' E 005°03'0 0.0
2018-Jul-13 12:26N 60°49' E 005°03'0 0.0
2018-Jul-13 11:58N 60°49' E 005°03'0 0.0
2018-Jul-13 11:28N 60°49' E 005°03'0 0.0
2018-Jul-13 10:55N 60°49' E 005°03'0 0.0
2018-Jul-13 10:28N 60°49' E 005°03'0 0.0
2018-Jul-13 09:57N 60°49' E 005°03'0 0.0
2018-Jul-13 09:30N 60°49' E 005°03'0 0.0
2018-Jul-13 09:00N 60°49' E 005°03'0 0.0
2018-Jul-13 08:30N 60°49' E 005°03'0 0.0
2018-Jul-13 08:00N 60°49' E 005°03'0 0.0
2018-Jul-13 07:29N 60°49' E 005°03'0 0.0
2018-Jul-13 06:59N 60°49' E 005°03'0 0.0
2018-Jul-13 06:29N 60°49' E 005°03'0 0.0
2018-Jul-13 05:59N 60°49' E 005°03'0 0.0
2018-Jul-13 05:28N 60°49' E 005°03'0 0.0
2018-Jul-13 04:58N 60°49' E 005°03'0 0.0
2018-Jul-13 04:28N 60°49' E 005°03'0 0.0
2018-Jul-13 03:58N 60°49' E 005°03'0 0.0
2018-Jul-13 03:30N 60°49' E 005°03'0 0.4
2018-Jul-13 03:00N 60°49' E 005°03'3 4.9
2018-Jul-13 02:28N 60°50' E 004°58'510.6
2018-Jul-13 01:59N 60°51' E 004°48'4 7.8
2018-Jul-13 01:29N 60°47' E 004°46'3 6.8
2018-Jul-13 00:59N 60°45' E 004°41'611.4
2018-Jul-13 00:30N 60°43' E 004°30'612.7
2018-Jul-13 00:00N 60°38' E 004°22'  

Dump ship's entire track history